Time;durP1;ratioP1;P1;durP2;ratioP2;P2;SDS_P1;SDS_P2;PMS_P1;PMS_P2;Temp;Humidity;BMP_temperature;BMP_pressure;BME280_temperature;BME280_humidity;BME280_pressure;Samples;Min_cycle;Max_cycle;Signal;HPM_P1;HPM_P2
2022/03/23 00:01:04;;;;;;;39.22;20.45;;;;;;;3.34;68.33;102549.34;5034320;28;20017;-78
2022/03/23 00:03:29;;;;;;;41.58;20.73;;;;;;;3.37;68.47;102565.91;5034697;28;20405;-78
2022/03/23 00:05:55;;;;;;;36.83;19.93;;;;;;;3.38;68.96;102572.91;5025601;28;20504;-78
2022/03/23 00:08:21;;;;;;;38.63;21.13;;;;;;;3.32;68.70;102569.69;5017727;28;20033;-78
2022/03/23 00:10:47;;;;;;;34.60;18.20;;;;;;;3.37;68.57;102554.47;5033992;28;20040;-78
2022/03/23 00:13:13;;;;;;;42.47;19.65;;;;;;;3.36;68.66;102558.91;5017150;28;20037;-78
2022/03/23 00:15:39;;;;;;;34.47;19.75;;;;;;;3.35;67.70;102535.25;5034273;28;20567;-78
2022/03/23 00:18:04;;;;;;;38.92;19.10;;;;;;;3.23;68.06;102512.91;5032823;28;20377;-78
2022/03/23 00:20:31;;;;;;;40.70;18.60;;;;;;;3.29;68.95;102562.75;5026360;28;20026;-78
2022/03/23 00:22:57;;;;;;;36.90;18.38;;;;;;;3.22;68.96;102563.97;5050155;28;20037;-78
2022/03/23 00:25:23;;;;;;;34.45;18.50;;;;;;;3.25;69.17;102574.38;5052020;28;20094;-77
2022/03/23 00:27:48;;;;;;;39.55;20.77;;;;;;;3.27;69.70;102593.66;5051286;28;20028;-78
2022/03/23 00:30:14;;;;;;;42.47;20.40;;;;;;;3.25;70.09;102616.63;5017371;28;20573;-78
2022/03/23 00:32:39;;;;;;;40.50;19.63;;;;;;;3.18;70.40;102620.47;5017113;28;20271;-78
2022/03/23 00:35:05;;;;;;;41.47;19.63;;;;;;;3.16;70.47;102614.38;5017115;28;20091;-77
2022/03/23 00:37:30;;;;;;;39.33;19.55;;;;;;;3.17;70.36;102611.69;5033356;28;20274;-78
2022/03/23 00:39:56;;;;;;;41.33;19.03;;;;;;;3.16;70.55;102611.75;5051532;28;20033;-77
2022/03/23 00:42:21;;;;;;;40.23;21.13;;;;;;;3.19;71.74;102648.59;5016958;28;20618;-78
2022/03/23 00:44:46;;;;;;;46.30;21.30;;;;;;;3.12;73.22;102687.59;5016900;28;20028;-78
2022/03/23 00:47:14;;;;;;;43.65;21.95;;;;;;;3.02;75.13;102712.66;5017505;28;20552;-78
2022/03/23 00:49:40;;;;;;;43.90;22.20;;;;;;;3.00;76.51;102740.91;5016795;28;20028;-78
2022/03/23 00:52:06;;;;;;;39.17;20.85;;;;;;;2.98;77.87;102755.94;5033338;28;20091;-78
2022/03/23 00:54:35;;;;;;;45.35;23.08;;;;;;;2.89;79.31;102754.53;5016653;28;20100;-78
2022/03/23 00:57:06;;;;;;;42.97;21.73;;;;;;;2.86;80.25;102746.75;5016153;28;20041;-78
2022/03/23 00:59:31;;;;;;;43.13;22.27;;;;;;;2.74;80.60;102723.53;5024321;28;20040;-78
2022/03/23 01:01:58;;;;;;;45.78;23.80;;;;;;;2.71;80.78;102715.72;5052296;28;20014;-78
2022/03/23 01:04:23;;;;;;;;;;;;;;;2.70;81.74;102719.28;5033280;28;20048;-78
2022/03/23 01:06:49;;;;;;;47.10;21.88;;;;;;;2.68;82.04;102724.63;5032801;28;20090;-78
2022/03/23 01:09:14;;;;;;;46.40;22.65;;;;;;;2.57;82.35;102704.88;5031736;28;20029;-78
2022/03/23 01:11:40;;;;;;;42.67;23.40;;;;;;;2.62;83.02;102718.72;5016174;28;20478;-78
2022/03/23 01:14:06;;;;;;;40.67;20.88;;;;;;;2.58;83.23;102711.88;5031854;28;20579;-77
2022/03/23 01:16:33;;;;;;;44.22;22.40;;;;;;;2.57;83.25;102702.25;5031624;28;20037;-77
2022/03/23 01:18:59;;;;;;;41.22;21.67;;;;;;;2.42;83.46;102685.28;5031370;28;20071;-78
2022/03/23 01:21:25;;;;;;;48.60;23.52;;;;;;;2.44;84.22;102705.38;5031775;28;20579;-77
2022/03/23 01:23:50;;;;;;;47.17;23.73;;;;;;;2.38;85.17;102695.06;5030850;28;20051;-77
2022/03/23 01:26:16;;;;;;;43.97;24.45;;;;;;;2.41;86.43;102702.88;5031205;28;20280;-78
2022/03/23 01:28:41;;;;;;;45.90;22.35;;;;;;;2.38;86.42;102699.50;5030826;28;20496;-78
2022/03/23 01:31:08;;;;;;;43.30;22.60;;;;;;;2.36;87.39;102712.72;5032251;28;20063;-78
2022/03/23 01:33:33;;;;;;;;;;;;;;;2.36;88.26;102718.00;5015485;28;20803;-78
2022/03/23 01:35:59;;;;;;;44.70;23.33;;;;;;;2.33;89.54;102719.00;5014694;28;19966;-77
2022/03/23 01:38:24;;;;;;;50.97;25.08;;;;;;;2.29;90.87;102730.59;5033458;28;20039;-77
2022/03/23 01:40:50;;;;;;;47.23;22.73;;;;;;;2.24;92.25;102739.56;5016306;28;20025;-78
2022/03/23 01:43:16;;;;;;;45.85;25.40;;;;;;;2.15;93.40;102732.88;5024005;28;20321;-77
2022/03/23 01:45:42;;;;;;;56.67;25.48;;;;;;;2.15;94.64;102743.41;5030424;28;20224;-77
2022/03/23 01:48:07;;;;;;;51.57;27.50;;;;;;;2.17;96.39;102743.38;5032288;28;20029;-77
2022/03/23 01:50:33;;;;;;;49.47;25.93;;;;;;;2.15;97.60;102750.47;5049989;28;20898;-78
2022/03/23 01:52:58;;;;;;;50.88;27.17;;;;;;;2.18;98.63;102755.63;5033326;28;20036;-77
2022/03/23 01:55:25;;;;;;;55.40;26.90;;;;;;;2.10;99.88;102748.88;5032349;28;20071;-77
2022/03/23 01:57:52;;;;;;;50.47;24.42;;;;;;;2.09;100.00;102756.84;5033318;28;20115;-77
2022/03/23 02:00:19;;;;;;;54.15;27.02;;;;;;;2.04;100.00;102757.03;5051693;28;20037;-77
2022/03/23 02:02:48;;;;;;;52.33;25.33;;;;;;;1.98;100.00;102754.59;5032667;28;20386;-77
2022/03/23 02:05:15;;;;;;;48.20;25.40;;;;;;;1.90;100.00;102746.16;5032803;28;20775;-77
2022/03/23 02:07:47;;;;;;;53.30;26.08;;;;;;;1.80;100.00;102735.09;5032183;28;20083;-77
2022/03/23 02:10:13;;;;;;;51.13;26.77;;;;;;;1.89;100.00;102754.94;5052301;28;20025;-77
2022/03/23 02:12:46;;;;;;;55.58;28.15;;;;;;;1.94;100.00;102758.28;5020679;28;20041;-77
2022/03/23 02:15:16;;;;;;;58.88;28.50;;;;;;;1.89;100.00;102762.84;5049710;28;20158;-78
2022/03/23 02:17:42;;;;;;;58.55;30.13;;;;;;;1.92;100.00;102770.66;5014899;28;20060;-77
2022/03/23 02:20:09;;;;;;;64.50;29.17;;;;;;;1.86;100.00;102769.09;5013829;28;20037;-77
2022/03/23 02:22:34;;;;;;;59.45;28.27;;;;;;;1.83;100.00;102773.63;5030530;28;20111;-77
2022/03/23 02:25:00;;;;;;;51.83;27.83;;;;;;;1.71;100.00;102767.03;5015048;28;20063;-77
2022/03/23 02:27:26;;;;;;;49.63;26.30;;;;;;;1.63;100.00;102775.19;5049596;28;20071;-78
2022/03/23 02:29:53;;;;;;;;;;;;;;;1.58;100.00;102765.75;5052946;28;20064;-78
2022/03/23 02:32:19;;;;;;;53.47;25.70;;;;;;;1.49;100.00;102748.50;5030809;28;19970;-77
2022/03/23 02:34:44;;;;;;;54.08;24.90;;;;;;;1.43;100.00;102732.94;5047712;28;20033;-77
2022/03/23 02:37:10;;;;;;;49.97;25.48;;;;;;;1.55;100.00;102750.09;5048237;28;20025;-77
2022/03/23 02:39:36;;;;;;;54.57;26.77;;;;;;;1.48;100.00;102728.38;5029941;28;20047;-78
2022/03/23 02:42:02;;;;;;;55.70;28.67;;;;;;;1.46;100.00;102724.94;5030762;28;20025;-77
2022/03/23 02:44:29;;;;;;;57.90;28.90;;;;;;;1.47;100.00;102734.53;5034471;28;20037;-77
2022/03/23 02:46:56;;;;;;;51.00;24.80;;;;;;;1.47;100.00;102739.81;5041421;28;20032;-77
2022/03/23 02:49:22;;;;;;;51.53;27.13;;;;;;;1.40;100.00;102740.94;5033332;28;20066;-77
2022/03/23 02:51:48;;;;;;;;;;;;;;;1.36;100.00;102728.78;5048201;28;20052;-77
2022/03/23 03:03:09;;;;;;;53.78;27.65;;;;;;;1.24;100.00;102724.81;5022924;28;20039;-77
2022/03/23 03:05:34;;;;;;;60.17;28.23;;;;;;;1.19;100.00;102721.50;5029717;28;20104;-77
2022/03/23 03:10:44;;;;;;;48.03;24.15;;;;;;;1.12;100.00;102707.69;5030488;28;20405;-77
2022/03/23 03:13:09;;;;;;;50.43;25.67;;;;;;;1.09;100.00;102710.44;5030486;28;20035;-77
2022/03/23 03:15:34;;;;;;;52.17;26.03;;;;;;;1.07;100.00;102709.63;5029552;28;20604;-77
2022/03/23 03:18:03;;;;;;;52.23;25.93;;;;;;;1.08;100.00;102716.63;5029608;28;20029;-77
2022/03/23 03:20:29;;;;;;;54.45;24.85;;;;;;;1.07;100.00;102708.78;5029344;28;20291;-77
2022/03/23 03:22:54;;;;;;;52.85;26.73;;;;;;;0.99;100.00;102711.66;5033704;28;20039;-80
2022/03/23 03:25:23;;;;;;;51.50;26.27;;;;;;;0.92;100.00;102707.53;5034382;28;20063;-79
2022/03/23 03:27:48;;;;;;;53.03;27.52;;;;;;;0.97;100.00;102709.09;5035433;28;20021;-78
2022/03/23 03:30:16;;;;;;;51.80;27.10;;;;;;;0.96;100.00;102720.53;5018808;28;20746;-76
2022/03/23 03:32:42;;;;;;;53.60;25.63;;;;;;;0.90;100.00;102710.22;5020409;28;20029;-77
2022/03/23 03:35:09;;;;;;;54.50;24.63;;;;;;;0.82;100.00;102702.59;5035441;28;20090;-78
2022/03/23 03:37:35;;;;;;;59.83;26.98;;;;;;;0.92;100.00;102718.06;5018544;28;20841;-80
2022/03/23 03:40:02;;;;;;;54.60;26.00;;;;;;;0.90;100.00;102733.03;5020815;28;20040;-78
2022/03/23 03:42:28;;;;;;;56.53;26.35;;;;;;;0.88;100.00;102732.22;5020986;28;20033;-77
2022/03/23 03:44:53;;;;;;;55.78;25.48;;;;;;;0.89;100.00;102734.81;5037250;28;20047;-79
2022/03/23 03:47:19;;;;;;;51.70;25.33;;;;;;;0.87;100.00;102726.09;5017831;28;20021;-79
2022/03/23 03:49:45;;;;;;;51.35;24.23;;;;;;;0.84;100.00;102720.91;5011303;28;20340;-79
2022/03/23 03:52:12;;;;;;;53.00;27.40;;;;;;;0.78;100.00;102716.75;5034244;28;20096;-77
2022/03/23 03:54:37;;;;;;;60.60;28.87;;;;;;;0.75;100.00;102719.47;5034160;28;20043;-78
2022/03/23 03:57:03;;;;;;;56.17;27.07;;;;;;;0.70;100.00;102721.38;5017903;28;21018;-77
2022/03/23 03:59:28;;;;;;;62.15;29.98;;;;;;;0.69;100.00;102735.44;5033605;28;20813;-79
2022/03/23 04:01:54;;;;;;;57.55;27.25;;;;;;;0.66;100.00;102732.06;5017293;28;20025;-81
2022/03/23 04:04:19;;;;;;;59.67;27.80;;;;;;;0.61;100.00;102721.69;5033451;28;20037;-78
2022/03/23 04:06:45;;;;;;;56.77;27.07;;;;;;;0.62;100.00;102731.28;5033406;28;20086;-77
2022/03/23 04:09:10;;;;;;;54.27;25.63;;;;;;;0.57;100.00;102727.97;5016990;28;20389;-76
2022/03/23 04:11:35;;;;;;;56.97;26.90;;;;;;;0.60;100.00;102728.72;5017031;28;20411;-78
2022/03/23 04:14:01;;;;;;;48.30;25.60;;;;;;;0.46;100.00;102720.41;5013009;28;20025;-76
2022/03/23 04:16:27;;;;;;;52.38;26.30;;;;;;;0.47;100.00;102721.25;5032868;28;20493;-77
2022/03/23 04:18:52;;;;;;;50.70;25.20;;;;;;;0.46;100.00;102727.44;5032811;28;20029;-77
2022/03/23 04:21:18;;;;;;;52.57;24.83;;;;;;;0.46;100.00;102719.56;5032948;28;20268;-77
2022/03/23 04:23:43;;;;;;;49.10;23.83;;;;;;;0.45;100.00;102725.72;5016272;28;20041;-78
2022/03/23 04:26:08;;;;;;;55.97;26.17;;;;;;;0.45;100.00;102723.97;5015904;28;20276;-79
2022/03/23 04:28:34;;;;;;;56.00;25.20;;;;;;;0.41;100.00;102722.31;5032820;28;20041;-79
2022/03/23 04:31:01;;;;;;;56.42;27.05;;;;;;;0.39;100.00;102719.75;5050272;28;20104;-76
2022/03/23 04:33:26;;;;;;;54.40;27.33;;;;;;;0.29;100.00;102713.06;5015249;28;20067;-76
2022/03/23 04:35:52;;;;;;;53.08;25.35;;;;;;;0.24;100.00;102712.34;5033365;28;20032;-78
2022/03/23 04:38:17;;;;;;;52.67;25.83;;;;;;;0.31;100.00;102721.75;5032974;28;20063;-76
2022/03/23 04:40:43;;;;;;;54.77;26.90;;;;;;;0.29;100.00;102713.06;5032638;28;20025;-76
2022/03/23 04:43:08;;;;;;;51.30;23.40;;;;;;;0.30;100.00;102725.28;5050644;28;20040;-78
2022/03/23 04:45:33;;;;;;;47.87;22.37;;;;;;;0.28;100.00;102705.22;5012365;28;20032;-78
2022/03/23 04:47:59;;;;;;;50.33;25.83;;;;;;;0.24;100.00;102701.00;5050336;28;20131;-77
2022/03/23 04:50:24;;;;;;;54.58;26.67;;;;;;;0.25;100.00;102706.19;5050040;28;20680;-77
2022/03/23 04:52:52;;;;;;;49.70;23.52;;;;;;;0.13;100.00;102703.94;5032924;28;20037;-78
2022/03/23 04:55:18;;;;;;;46.13;24.90;;;;;;;0.18;100.00;102716.00;5012790;28;20048;-76
2022/03/23 04:57:44;;;;;;;52.35;25.02;;;;;;;0.21;100.00;102720.31;5029941;28;20062;-80
2022/03/23 05:00:13;;;;;;;50.38;22.48;;;;;;;0.15;100.00;102710.00;5031833;28;20039;-77
2022/03/23 05:02:39;;;;;;;58.47;25.25;;;;;;;0.18;100.00;102720.41;5024291;28;20033;-78
2022/03/23 05:05:09;;;;;;;49.60;25.55;;;;;;;0.15;100.00;102720.50;5032417;28;20021;-78
2022/03/23 05:07:35;;;;;;;58.10;25.13;;;;;;;0.14;100.00;102721.41;5032704;28;20378;-77
2022/03/23 05:10:02;;;;;;;49.13;24.00;;;;;;;0.26;100.00;102734.19;5015690;28;20131;-76
2022/03/23 05:12:36;;;;;;;53.80;25.00;;;;;;;0.24;100.00;102733.38;5031621;28;20037;-76
2022/03/23 05:15:04;;;;;;;51.55;24.75;;;;;;;0.22;100.00;102732.56;5047397;28;20029;-78
2022/03/23 05:17:30;;;;;;;54.70;25.38;;;;;;;0.16;100.00;102723.09;5015916;28;20402;-77
2022/03/23 05:19:56;;;;;;;54.00;24.58;;;;;;;0.16;100.00;102722.22;5031209;28;20071;-77
2022/03/23 05:22:21;;;;;;;48.10;23.63;;;;;;;0.14;100.00;102724.91;5031941;28;20132;-78
2022/03/23 05:24:47;;;;;;;52.75;24.75;;;;;;;0.14;100.00;102726.66;5015548;28;20064;-77
2022/03/23 05:27:12;;;;;;;49.63;26.50;;;;;;;0.18;100.00;102718.63;5012344;28;20114;-77
2022/03/23 05:29:37;;;;;;;57.47;27.63;;;;;;;0.21;100.00;102720.31;5012376;28;20124;-78
2022/03/23 05:32:03;;;;;;;66.23;29.83;;;;;;;0.27;100.00;102729.78;5015604;28;20013;-76
2022/03/23 05:34:28;;;;;;;67.18;31.90;;;;;;;0.30;100.00;102734.94;5031949;28;20287;-78
2022/03/23 05:36:54;;;;;;;68.13;28.60;;;;;;;0.38;100.00;102741.69;5015047;28;20417;-77
2022/03/23 05:39:20;;;;;;;52.38;26.67;;;;;;;0.38;100.00;102751.34;5030917;28;20021;-78
2022/03/23 05:41:46;;;;;;;57.97;28.02;;;;;;;0.35;100.00;102744.41;5029145;28;20021;-77
2022/03/23 05:44:11;;;;;;;60.55;28.52;;;;;;;0.52;100.00;102762.28;5030706;28;20025;-77
2022/03/23 05:46:37;;;;;;;56.37;26.80;;;;;;;0.57;100.00;102764.75;5030649;28;20031;-77
2022/03/23 05:49:03;;;;;;;59.73;28.77;;;;;;;0.64;100.00;102763.66;5017915;28;20028;-77
2022/03/23 05:51:28;;;;;;;59.65;29.15;;;;;;;0.68;100.00;102751.25;5048187;28;20128;-80
2022/03/23 05:53:54;;;;;;;63.08;28.60;;;;;;;0.77;100.00;102751.84;5030427;28;20107;-79
2022/03/23 05:56:19;;;;;;;60.90;29.10;;;;;;;0.94;100.00;102758.31;5031007;28;20174;-77
2022/03/23 05:58:44;;;;;;;58.37;27.53;;;;;;;0.93;100.00;102746.06;5012390;28;20028;-78
2022/03/23 06:01:10;;;;;;;53.90;27.00;;;;;;;1.09;100.00;102762.19;5013323;28;20512;-75
2022/03/23 06:03:35;;;;;;;56.37;27.43;;;;;;;1.15;100.00;102767.25;5030184;28;20043;-77
2022/03/23 06:06:01;;;;;;;57.08;27.73;;;;;;;1.26;100.00;102768.63;5012496;28;20033;-77
2022/03/23 06:08:27;;;;;;;73.15;33.10;;;;;;;1.29;100.00;102772.03;5048776;28;20121;-81
2022/03/23 06:10:53;;;;;;;63.20;28.60;;;;;;;1.44;100.00;102777.63;5013325;28;20652;-77
2022/03/23 06:13:18;;;;;;;60.03;28.57;;;;;;;1.65;100.00;102780.41;5020493;28;20441;-79
2022/03/23 06:15:44;;;;;;;63.35;31.10;;;;;;;2.41;100.00;102786.38;5030953;28;20641;-77
2022/03/23 06:18:09;;;;;;;62.05;28.98;;;;;;;3.33;100.00;102791.41;5029713;28;20040;-76
2022/03/23 06:20:35;;;;;;;59.23;28.13;;;;;;;3.72;98.84;102781.78;5046502;28;20079;-78
2022/03/23 06:23:00;;;;;;;50.53;25.60;;;;;;;4.41;96.12;102760.13;5024410;28;20045;-77
2022/03/23 06:25:26;;;;;;;48.07;25.67;;;;;;;4.58;91.06;102719.63;5030241;28;20791;-76
2022/03/23 06:27:52;;;;;;;52.42;26.40;;;;;;;4.97;88.17;102692.13;5047545;28;20029;-76
2022/03/23 06:30:17;;;;;;;43.53;23.63;;;;;;;5.43;85.49;102687.94;5028890;28;20036;-77
2022/03/23 06:32:43;;;;;;;47.83;24.03;;;;;;;5.78;81.64;102647.19;5046863;28;20394;-79
2022/03/23 06:35:08;;;;;;;45.17;26.63;;;;;;;5.89;79.96;102632.38;5047275;28;20326;-79
2022/03/23 06:37:34;;;;;;;47.33;24.60;;;;;;;6.14;79.81;102646.97;5013147;28;20082;-77
2022/03/23 06:40:00;;;;;;;49.47;25.08;;;;;;;6.74;77.45;102643.47;5012436;28;20375;-77
2022/03/23 06:42:27;;;;;;;43.63;23.58;;;;;;;7.22;75.22;102614.06;5011541;28;20481;-77
2022/03/23 06:44:53;;;;;;;45.60;23.38;;;;;;;7.58;72.67;102587.78;5012391;28;20131;-77
2022/03/23 06:47:18;;;;;;;39.58;23.55;;;;;;;7.97;70.24;102546.28;5006655;28;20128;-77
2022/03/23 06:49:43;;;;;;;40.17;22.97;;;;;;;8.26;68.92;102535.50;5046395;28;20041;-79
2022/03/23 06:52:09;;;;;;;43.57;24.23;;;;;;;8.51;67.63;102520.56;5029462;28;20507;-77
2022/03/23 06:54:35;;;;;;;44.78;25.05;;;;;;;8.53;66.47;102494.69;5028460;28;20112;-76
2022/03/23 06:57:00;;;;;;;47.87;24.50;;;;;;;8.30;64.99;102437.69;5012261;28;20021;-76
2022/03/23 06:59:25;;;;;;;43.80;23.70;;;;;;;7.63;65.56;102428.00;5012142;28;20048;-78
2022/03/23 07:01:51;;;;;;;39.30;24.10;;;;;;;8.10;65.20;102477.19;5029147;28;20017;-77
2022/03/23 07:04:16;;;;;;;44.83;24.87;;;;;;;8.03;65.07;102495.34;5011958;28;20033;-76
2022/03/23 07:06:42;;;;;;;40.63;23.90;;;;;;;7.90;65.60;102504.25;5012550;28;20486;-78
2022/03/23 07:11:52;;;;;;;42.63;24.58;;;;;;;7.80;69.34;102640.47;5028720;28;20032;-76
2022/03/23 07:14:17;;;;;;;44.08;25.42;;;;;;;7.93;70.72;102698.19;5012160;28;20021;-76
2022/03/23 07:16:43;;;;;;;46.20;25.63;;;;;;;7.89;71.19;102700.22;5012149;28;20472;-78
2022/03/23 07:19:09;;;;;;;40.83;23.90;;;;;;;7.76;71.92;102701.91;5046031;28;20040;-78
2022/03/23 07:21:35;;;;;;;;;;;;;;;8.23;71.68;102724.63;5012462;28;20025;-76
2022/03/23 07:24:00;;;;;;;;;;;;;;;8.75;70.43;102721.25;5028647;28;19916;-77
2022/03/23 07:26:26;;;;;;;44.80;25.50;;;;;;;9.25;67.95;102660.16;5046291;28;20358;-76
2022/03/23 07:28:51;;;;;;;41.53;24.20;;;;;;;9.28;65.57;102563.97;5046043;28;20036;-76
2022/03/23 07:31:16;;;;;;;39.63;22.87;;;;;;;9.44;64.61;102558.41;5011852;28;20024;-77
2022/03/23 07:33:42;;;;;;;40.80;23.30;;;;;;;9.85;63.68;102557.19;5027791;28;20037;-77
2022/03/23 07:36:07;;;;;;;39.53;23.77;;;;;;;10.18;62.79;102558.28;5027775;28;20049;-77
2022/03/23 07:38:33;;;;;;;40.03;23.57;;;;;;;10.42;60.42;102492.41;5027888;28;20043;-78
2022/03/23 07:40:58;;;;;;;41.83;24.60;;;;;;;10.70;58.19;102415.41;5045711;28;20474;-77
2022/03/23 07:43:24;;;;;;;44.63;25.73;;;;;;;10.91;55.81;102338.91;5011878;28;20041;-77
2022/03/23 07:45:49;;;;;;;47.50;27.00;;;;;;;11.14;55.35;102352.16;5027862;28;20059;-77
2022/03/23 07:48:16;;;;;;;44.88;26.42;;;;;;;11.28;54.54;102325.13;5027811;28;20033;-77
2022/03/23 07:50:41;;;;;;;47.65;27.75;;;;;;;11.51;53.58;102298.28;5011155;28;20094;-77
2022/03/23 07:53:07;;;;;;;39.58;22.73;;;;;;;11.89;52.78;102312.91;5011134;28;20494;-77
2022/03/23 07:55:32;;;;;;;45.03;24.57;;;;;;;12.37;51.49;102277.44;5027172;28;20102;-78
2022/03/23 07:57:57;;;;;;;38.70;22.93;;;;;;;12.74;50.52;102268.78;5027544;28;20033;-77
2022/03/23 08:00:23;;;;;;;39.37;23.13;;;;;;;13.10;50.20;102278.78;5011036;28;20037;-79
2022/03/23 08:02:50;;;;;;;37.23;21.57;;;;;;;12.99;47.63;102088.59;5027438;28;20498;-77
2022/03/23 08:05:16;;;;;;;35.55;21.48;;;;;;;13.42;46.85;102126.59;5027503;28;20091;-78
2022/03/23 08:07:41;;;;;;;34.83;21.60;;;;;;;13.84;46.41;102145.75;5030604;28;20514;-77
2022/03/23 08:10:07;;;;;;;30.53;20.87;;;;;;;13.33;44.20;101943.25;5014373;28;20043;-77
2022/03/23 08:12:32;;;;;;;33.05;21.10;;;;;;;14.11;44.00;102050.03;5030595;28;20056;-77
2022/03/23 08:14:58;;;;;;;29.40;17.00;;;;;;;14.49;43.10;102043.47;5030756;28;20033;-78
2022/03/23 08:17:23;;;;;;;32.60;20.70;;;;;;;14.09;41.65;101861.34;5014406;28;20069;-78
2022/03/23 08:20:32;;;;;;;37.37;22.83;;;;;;;13.88;40.77;101791.91;5030674;28;20061;-78
2022/03/23 08:22:34;;;;;;;31.90;21.33;;;;;;;14.27;39.50;101788.78;5030320;28;20041;-78
2022/03/23 08:24:59;;;;;;;27.63;17.97;;;;;;;14.56;39.94;101864.50;5048510;28;20024;-78
2022/03/23 08:27:24;;;;;;;28.90;19.00;;;;;;;15.29;39.48;101945.56;5031058;28;20036;-78
2022/03/23 08:29:50;;;;;;;30.33;20.80;;;;;;;15.25;37.77;101755.91;5030408;28;20033;-77
2022/03/23 08:32:15;;;;;;;26.63;18.30;;;;;;;15.64;38.92;101955.25;5014339;28;20033;-77
2022/03/23 08:34:40;;;;;;;29.83;19.67;;;;;;;16.17;38.18;101966.53;5030473;28;20025;-79
2022/03/23 08:37:06;;;;;;;29.00;18.37;;;;;;;16.92;37.21;101949.19;5030527;28;20069;-77
2022/03/23 08:39:31;;;;;;;27.27;19.70;;;;;;;16.48;35.56;101688.19;5047899;28;20029;-77
2022/03/23 08:41:57;;;;;;;27.48;18.58;;;;;;;17.19;35.92;101886.69;5029674;28;20032;-78
2022/03/23 08:44:25;;;;;;;28.55;19.25;;;;;;;17.15;34.97;101755.81;5030429;28;20118;-78
2022/03/23 08:46:50;;;;;;;29.63;18.60;;;;;;;16.80;34.58;101650.25;5030263;28;20109;-78
2022/03/23 08:49:16;;;;;;;29.60;18.93;;;;;;;15.60;36.14;101598.59;5010187;28;20025;-77
2022/03/23 08:51:41;;;;;;;28.97;17.57;;;;;;;16.86;36.25;101900.34;5045039;28;20033;-77
2022/03/23 08:54:06;;;;;;;28.60;19.57;;;;;;;17.09;35.77;101876.13;5012722;28;20028;-77
2022/03/23 08:56:32;;;;;;;28.80;18.70;;;;;;;17.40;35.41;101885.19;5029423;28;20772;-79
2022/03/23 08:58:59;;;;;;;26.23;18.93;;;;;;;17.59;33.40;101711.06;5012196;28;20024;-79
2022/03/23 09:01:24;;;;;;;28.70;19.00;;;;;;;17.02;33.44;101599.97;5046800;28;20040;-78
2022/03/23 09:03:49;;;;;;;25.67;17.70;;;;;;;17.05;33.76;101661.66;5012849;28;20401;-78
2022/03/23 09:06:15;;;;;;;28.03;19.03;;;;;;;17.32;33.56;101718.72;5029669;28;20029;-78
2022/03/23 09:08:40;;;;;;;27.13;17.53;;;;;;;17.78;33.15;101766.38;5007209;28;20311;-77
2022/03/23 09:11:06;;;;;;;24.70;17.63;;;;;;;17.84;32.12;101666.56;5029746;28;20021;-77
2022/03/23 09:13:32;;;;;;;28.17;18.57;;;;;;;18.46;32.21;101749.00;5047306;28;20059;-78
2022/03/23 09:15:57;;;;;;;26.98;18.48;;;;;;;16.95;32.71;101550.50;5047288;28;20033;-78
2022/03/23 09:18:26;;;;;;;29.63;20.03;;;;;;;16.27;33.66;101541.47;5047023;28;20036;-78
2022/03/23 09:20:52;;;;;;;29.05;18.67;;;;;;;16.95;33.29;101592.78;5029331;28;20033;-78
2022/03/23 09:23:17;;;;;;;31.48;20.50;;;;;;;16.85;33.89;101700.94;5039799;23;20045;-87
2022/03/23 09:25:43;;;;;;;33.07;22.50;;;;;;;15.63;35.39;101598.22;5050642;28;20049;-87
2022/03/23 09:28:09;;;;;;;32.70;20.73;;;;;;;16.36;34.59;101691.28;5050702;28;20163;-90
2022/03/23 09:30:35;;;;;;;30.17;20.00;;;;;;;16.61;33.08;101577.91;5032762;28;20037;-87
2022/03/23 09:33:01;;;;;;;31.00;21.08;;;;;;;15.98;32.93;101416.44;5016486;28;20516;-87
2022/03/23 09:35:27;;;;;;;32.77;21.33;;;;;;;15.93;33.58;101526.56;5033013;28;20111;-87
2022/03/23 09:37:53;;;;;;;33.37;21.07;;;;;;;15.93;33.74;101506.88;5033009;28;20036;-87
2022/03/23 09:40:18;;;;;;;33.17;20.48;;;;;;;16.51;33.48;101604.28;5024006;28;20063;-87
2022/03/23 09:42:44;;;;;;;31.60;21.07;;;;;;;15.61;33.74;101444.97;5041457;28;20067;-87
2022/03/23 09:47:59;;;;;;;29.60;19.65;;;;;;;16.39;33.57;101615.50;5049562;28;20767;-88
2022/03/23 09:50:30;;;;;;;28.17;18.33;;;;;;;16.88;32.51;101611.59;5015924;28;20131;-87
2022/03/23 09:52:57;;;;;;;33.60;20.77;;;;;;;16.59;32.36;101504.47;5027114;28;20068;-87
2022/03/23 09:55:22;;;;;;;28.67;19.08;;;;;;;16.76;32.55;101589.56;5015424;28;20045;-87
2022/03/23 09:57:48;;;;;;;33.28;20.83;;;;;;;16.61;32.38;101556.34;5048407;28;20036;-89
2022/03/23 10:00:14;;;;;;;28.10;18.20;;;;;;;17.69;31.69;101704.34;5033355;28;20104;-87
2022/03/23 10:02:39;;;;;;;28.92;19.80;;;;;;;16.90;31.86;101471.97;5051144;28;20037;-90
2022/03/23 10:05:45;;;;;;;29.83;20.23;;;;;;;16.58;32.19;101479.38;5032405;28;20032;-88
2022/03/23 10:08:23;;;;;;;36.15;20.42;;;;;;;17.11;31.77;101529.75;5049568;28;20029;-87
2022/03/23 10:11:26;;;;;;;28.55;18.58;;;;;;;18.09;30.81;101666.22;5024484;28;20033;-87
2022/03/23 10:14:29;;;;;;;28.98;18.95;;;;;;;18.30;30.84;101622.19;5030993;28;20033;-87
2022/03/23 10:17:22;;;;;;;34.75;19.50;;;;;;;16.87;31.99;101465.09;5031223;28;20060;-88
2022/03/23 10:19:47;;;;;;;28.33;19.65;;;;;;;17.34;31.36;101535.03;5048818;28;20033;-87
2022/03/23 10:22:14;;;;;;;33.13;20.10;;;;;;;18.13;30.60;101630.53;5032528;28;20037;-88
2022/03/23 10:24:40;;;;;;;25.80;18.10;;;;;;;18.32;30.10;101585.81;5040545;28;20390;-87
2022/03/23 10:27:14;;;;;;;28.88;18.88;;;;;;;17.84;32.85;101788.13;5018918;28;20036;-89
2022/03/23 10:32:20;;;;;;;35.75;21.00;;;;;;;19.41;30.72;101774.13;5025324;28;20045;-79
2022/03/23 10:34:54;;;;;;;28.75;20.63;;;;;;;20.29;29.72;101814.31;5010298;28;20040;-77
2022/03/23 10:37:33;;;;;;;30.13;19.45;;;;;;;19.31;30.29;101695.09;5006122;28;20033;-80
2022/03/23 10:40:02;;;;;;;26.98;18.98;;;;;;;20.22;29.82;101798.84;4996150;28;20036;-78
2022/03/23 10:42:32;;;;;;;33.70;21.92;;;;;;;18.63;30.37;101492.69;5012726;28;20017;-79
2022/03/23 10:45:11;;;;;;;30.17;19.17;;;;;;;18.03;31.12;101449.00;5029366;28;20083;-79
2022/03/23 10:47:38;;;;;;;33.70;19.42;;;;;;;18.09;31.77;101610.31;5000787;28;20045;-78
2022/03/23 10:50:20;;;;;;;35.00;20.42;;;;;;;18.71;30.66;101545.81;4996634;28;20032;-78
2022/03/23 10:52:55;;;;;;;31.73;19.20;;;;;;;19.46;30.42;101744.59;4992585;28;20045;-80
2022/03/23 10:55:23;;;;;;;32.60;20.40;;;;;;;19.95;30.04;101797.88;5003460;28;20494;-79
2022/03/23 10:57:51;;;;;;;32.78;20.60;;;;;;;20.64;30.02;101872.09;5009713;28;20391;-78
2022/03/23 11:00:27;;;;;;;31.45;20.95;;;;;;;20.14;30.55;101779.22;5008596;28;20430;-77
2022/03/23 11:02:52;;;;;;;30.27;21.80;;;;;;;21.05;30.60;101975.22;5009558;28;20040;-78
2022/03/23 11:05:42;;;;;;;34.50;21.33;;;;;;;19.79;31.45;101776.50;5009201;28;20026;-77
2022/03/23 11:08:12;;;;;;;35.95;22.27;;;;;;;20.31;30.04;101715.47;5009487;28;20041;-79
2022/03/23 11:16:17;;;;;;;36.92;22.48;;;;;;;19.30;31.11;101642.81;5003449;28;20056;-78
2022/03/23 11:18:43;;;;;;;32.05;20.73;;;;;;;18.86;31.20;101554.66;4990627;28;20030;-78
2022/03/23 11:21:09;;;;;;;33.65;20.02;;;;;;;20.04;30.72;101793.13;4990723;28;20037;-80
2022/03/23 11:23:37;;;;;;;39.30;21.20;;;;;;;20.71;29.18;101699.31;5026941;28;20033;-80
2022/03/23 11:26:08;;;;;;;36.92;20.95;;;;;;;20.86;29.26;101789.53;4985408;28;20140;-77
2022/03/23 11:28:36;;;;;;;39.38;19.50;;;;;;;21.34;28.40;101719.78;5009287;28;20612;-78
2022/03/23 11:31:05;;;;;;;32.30;20.73;;;;;;;20.18;29.51;101583.41;4993377;28;20029;-79
2022/03/23 11:33:34;;;;;;;34.05;21.73;;;;;;;20.58;29.50;101654.03;4990581;28;20033;-78
2022/03/23 11:36:03;;;;;;;33.67;20.50;;;;;;;20.52;30.80;101814.84;5008883;28;20425;-79
2022/03/23 11:38:29;;;;;;;48.50;22.40;;;;;;;21.52;30.29;101961.81;5009228;28;20052;-78